Terminal Aerodrome Forecast
Issued by NWS Pueblo, CO

Home | Current Version | Previous Version | Text Only | Print | Product List | Glossary On
Versions: 1 2 3 4 5 6 7 8 9 10 11 12 13 14 15 16 17 18 19 20 21 22 23 24 25 26 27 28 29 30 31 32
000
FTUS45 KPUB 310529
TAFCOS
TAF
KCOS 310529Z 3106/0106 07006KT P6SM SCT140
     FM311000 03006KT 5SM BR FEW010 SCT140
     FM311500 15008KT P6SM SCT080
     FM311900 17012KT P6SM VCTS SCT060CB BKN140
     FM010200 12006KT P6SM SCT080 BKN140=

USA.gov is the U.S. government's official web portal to all federal, state and local government web resources and services.